createdAt,value
2023-03-07T00:01:43.121Z,63.85
2023-03-07T00:04:35.165Z,63.70
2023-03-07T00:07:27.128Z,63.72
2023-03-07T00:10:20.336Z,63.64
2023-03-07T00:13:02.896Z,63.54
2023-03-07T00:15:54.928Z,63.48
2023-03-07T00:18:47.060Z,63.40
2023-03-07T00:21:39.149Z,63.12
2023-03-07T00:24:31.161Z,63.01
2023-03-07T00:27:23.153Z,62.98
2023-03-07T00:30:15.698Z,62.87
2023-03-07T00:33:07.780Z,63.15
2023-03-07T00:36:01.639Z,63.09
2023-03-07T00:38:54.401Z,63.03
2023-03-07T00:41:35.344Z,62.96
2023-03-07T00:44:30.018Z,63.23
2023-03-07T00:47:22.039Z,63.18
2023-03-07T00:50:14.485Z,63.34
2023-03-07T00:52:49.037Z,63.08
2023-03-07T00:55:41.036Z,63.35
2023-03-07T00:58:35.523Z,63.52
2023-03-07T01:01:27.825Z,63.44
2023-03-07T01:04:05.189Z,63.52
2023-03-07T01:06:57.366Z,63.68
2023-03-07T01:09:53.588Z,63.74
2023-03-07T01:12:45.569Z,63.94
2023-03-07T01:15:37.624Z,64.09
2023-03-07T01:18:29.701Z,63.97
2023-03-07T01:21:24.069Z,63.79
2023-03-07T01:24:17.938Z,63.69
2023-03-07T01:27:09.923Z,63.69
2023-03-07T01:30:01.948Z,63.48
2023-03-07T01:32:58.978Z,63.67
2023-03-07T01:35:50.970Z,63.47
2023-03-07T01:38:34.148Z,63.57
2023-03-07T01:41:29.750Z,63.76
2023-03-07T01:44:25.012Z,63.68
2023-03-07T01:47:16.948Z,63.44
2023-03-07T01:50:13.365Z,63.54
2023-03-07T01:53:05.490Z,63.49
2023-03-07T01:55:57.885Z,63.55
2023-03-07T01:58:51.514Z,63.39
2023-03-07T02:01:43.671Z,63.20
2023-03-07T02:04:44.217Z,63.42
2023-03-07T02:07:18.735Z,63.18
2023-03-07T02:10:14.118Z,63.25
2023-03-07T02:13:06.387Z,63.14
2023-03-07T02:16:00.784Z,63.20
2023-03-07T02:18:52.914Z,63.16
2023-03-07T02:21:52.030Z,63.18
2023-03-07T02:24:39.863Z,63.27
2023-03-07T02:27:30.352Z,63.12
2023-03-07T02:30:22.413Z,63.14
2023-03-07T02:33:14.374Z,63.31
2023-03-07T02:36:01.332Z,63.15
2023-03-07T02:38:56.068Z,62.98
2023-03-07T02:41:48.682Z,63.24
2023-03-07T02:44:40.748Z,63.32
2023-03-07T02:47:15.513Z,63.05
2023-03-07T02:50:09.309Z,63.08
2023-03-07T02:52:44.831Z,63.08
2023-03-07T02:55:36.863Z,62.99
2023-03-07T02:58:28.908Z,63.34
2023-03-07T03:01:21.005Z,62.99
2023-03-07T03:04:12.987Z,63.04
2023-03-07T03:07:05.058Z,63.15
2023-03-07T03:09:57.867Z,63.00
2023-03-07T03:12:49.926Z,63.17
2023-03-07T03:15:41.939Z,63.51
2023-03-07T03:18:34.210Z,63.67
2023-03-07T03:21:26.280Z,63.69
2023-03-07T03:24:04.872Z,63.67
2023-03-07T03:26:59.674Z,63.70
2023-03-07T03:29:54.823Z,63.96
2023-03-07T03:32:47.187Z,63.86
2023-03-07T03:35:43.502Z,63.78
2023-03-07T03:38:35.923Z,63.72
2023-03-07T03:41:28.060Z,63.48
2023-03-07T03:44:00.048Z,63.50
2023-03-07T03:46:52.315Z,63.51
2023-03-07T03:49:44.440Z,63.46
2023-03-07T03:52:37.628Z,63.51
2023-03-07T03:55:29.899Z,63.57
2023-03-07T03:58:21.854Z,63.53
2023-03-07T04:00:53.548Z,63.46
2023-03-07T04:03:34.408Z,63.50
2023-03-07T04:06:29.082Z,63.53
2023-03-07T04:09:21.046Z,63.52
2023-03-07T04:12:13.248Z,63.54
2023-03-07T04:15:05.574Z,63.70
2023-03-07T04:17:57.560Z,63.72
2023-03-07T04:20:50.588Z,63.60
2023-03-07T04:23:33.096Z,63.52
2023-03-07T04:26:25.709Z,63.63
2023-03-07T04:29:04.324Z,63.60
2023-03-07T04:31:56.316Z,63.55
2023-03-07T04:34:37.088Z,63.62
2023-03-07T04:37:29.120Z,63.70
2023-03-07T04:40:21.432Z,63.78
2023-03-07T04:43:13.394Z,63.88
2023-03-07T04:46:06.090Z,63.93
2023-03-07T04:48:58.108Z,63.74
2023-03-07T04:51:32.455Z,63.90
2023-03-07T04:54:07.194Z,63.65
2023-03-07T04:56:59.223Z,63.53
2023-03-07T04:59:51.019Z,63.33
2023-03-07T05:02:43.213Z,63.19
2023-03-07T05:05:37.510Z,63.45
2023-03-07T05:08:30.543Z,63.39
2023-03-07T05:11:06.107Z,63.37
2023-03-07T05:13:58.090Z,63.28
2023-03-07T05:16:33.544Z,63.13
2023-03-07T05:19:16.851Z,62.99
2023-03-07T05:22:09.797Z,63.36
2023-03-07T05:24:44.949Z,63.38
2023-03-07T05:27:37.163Z,63.27
2023-03-07T05:30:18.032Z,63.26
2023-03-07T05:32:58.508Z,62.96
2023-03-07T05:35:50.564Z,63.17
2023-03-07T05:38:42.561Z,63.38
2023-03-07T05:41:34.592Z,63.17
2023-03-07T05:44:26.623Z,63.29
2023-03-07T05:47:18.643Z,63.50
2023-03-07T05:50:13.484Z,63.38
2023-03-07T05:53:06.397Z,63.44
2023-03-07T05:55:58.410Z,63.41
2023-03-07T05:58:50.470Z,63.29
2023-03-07T06:01:25.443Z,63.36
2023-03-07T06:04:17.493Z,63.31
2023-03-07T06:07:09.575Z,63.05
2023-03-07T06:10:01.697Z,63.03
2023-03-07T06:12:54.778Z,63.09
2023-03-07T06:15:49.229Z,63.00
2023-03-07T06:18:41.474Z,62.73
2023-03-07T06:21:22.349Z,62.82
2023-03-07T06:24:14.363Z,62.58
2023-03-07T06:27:06.677Z,62.60
2023-03-07T06:29:58.766Z,62.36
2023-03-07T06:32:50.940Z,62.12
2023-03-07T06:35:44.264Z,61.97
2023-03-07T06:38:19.467Z,61.97
2023-03-07T06:41:11.843Z,61.68
2023-03-07T06:44:03.888Z,61.20
2023-03-07T06:46:55.916Z,61.29
2023-03-07T06:49:47.898Z,61.04
2023-03-07T06:52:39.879Z,60.59
2023-03-07T06:55:31.858Z,60.44
2023-03-07T06:58:23.914Z,60.25
2023-03-07T07:01:20.730Z,59.94
2023-03-07T07:04:13.498Z,59.79
2023-03-07T07:07:07.520Z,59.78
2023-03-07T07:09:59.789Z,59.64
2023-03-07T07:12:56.773Z,59.33
2023-03-07T07:15:48.809Z,59.15
2023-03-07T07:18:40.825Z,58.86
2023-03-07T07:21:33.049Z,58.61
2023-03-07T07:24:05.784Z,58.54
2023-03-07T07:26:57.825Z,58.28
2023-03-07T07:29:33.440Z,58.23
2023-03-07T07:32:25.722Z,58.11
2023-03-07T07:35:14.490Z,57.61
2023-03-07T07:38:06.558Z,57.63
2023-03-07T07:40:58.527Z,57.16
2023-03-07T07:43:32.854Z,56.98
2023-03-07T07:46:25.014Z,56.79
2023-03-07T07:49:18.665Z,56.08
2023-03-07T07:52:10.861Z,55.44
2023-03-07T07:55:02.873Z,55.05
2023-03-07T07:57:54.974Z,54.75
2023-03-07T08:00:47.054Z,55.09
2023-03-07T08:03:39.102Z,54.49
2023-03-07T08:06:31.874Z,54.38
2023-03-07T08:09:23.954Z,53.97
2023-03-07T08:12:16.024Z,54.32
2023-03-07T08:15:10.417Z,54.59
2023-03-07T08:17:45.549Z,54.53
2023-03-07T08:20:37.602Z,54.15
2023-03-07T08:23:29.577Z,53.82
2023-03-07T08:26:22.100Z,53.78
2023-03-07T08:29:14.205Z,53.45
2023-03-07T08:32:06.840Z,53.13
2023-03-07T08:34:58.876Z,52.99
2023-03-07T08:37:36.413Z,52.29
2023-03-07T08:40:29.825Z,50.85
2023-03-07T08:43:21.954Z,50.01
2023-03-07T08:46:14.002Z,48.32
2023-03-07T08:49:06.086Z,46.60
2023-03-07T08:51:40.800Z,44.08
2023-03-07T08:54:17.938Z,43.50
2023-03-07T08:57:09.887Z,41.84
2023-03-07T09:00:01.875Z,40.53
2023-03-07T09:02:54.440Z,39.19
2023-03-07T09:05:46.631Z,37.63
2023-03-07T09:08:28.949Z,37.30
2023-03-07T09:11:22.608Z,36.97
2023-03-07T09:14:14.641Z,37.22
2023-03-07T09:16:46.485Z,37.89
2023-03-07T09:19:28.878Z,37.61
2023-03-07T09:22:20.912Z,38.10
2023-03-07T09:24:52.988Z,37.66
2023-03-07T09:27:45.725Z,37.14
2023-03-07T09:30:20.782Z,36.74
2023-03-07T09:33:12.885Z,36.25
2023-03-07T09:35:53.700Z,35.92
2023-03-07T09:38:28.535Z,36.71
2023-03-07T09:41:43.226Z,36.58
2023-03-07T09:44:49.394Z,37.10
2023-03-07T09:47:44.688Z,37.50
2023-03-07T09:50:46.801Z,38.16
2023-03-07T09:53:43.006Z,38.31
2023-03-07T09:56:40.878Z,38.67
2023-03-07T09:59:38.156Z,39.60
2023-03-07T10:02:19.177Z,40.18
2023-03-07T10:05:24.492Z,40.75
2023-03-07T10:08:19.393Z,41.43
2023-03-07T10:11:25.533Z,41.66
2023-03-07T10:14:36.161Z,41.94
2023-03-07T10:17:43.176Z,40.99
2023-03-07T10:20:42.515Z,38.60
2023-03-07T10:24:11.262Z,35.73
2023-03-07T10:27:06.609Z,32.74
2023-03-07T10:30:02.011Z,32.73
2023-03-07T10:32:58.118Z,33.13
2023-03-07T10:35:55.772Z,33.79
2023-03-07T10:39:03.218Z,34.49
2023-03-07T10:41:55.862Z,35.16
2023-03-07T10:44:49.104Z,34.21
2023-03-07T10:47:41.454Z,34.63
2023-03-07T10:50:43.864Z,34.83
2023-03-07T10:53:39.055Z,34.41
2023-03-07T10:56:31.032Z,34.73
2023-03-07T10:59:27.084Z,34.58
2023-03-07T11:02:03.062Z,34.32
2023-03-07T11:04:55.542Z,33.85
2023-03-07T11:07:47.639Z,33.63
2023-03-07T11:10:36.151Z,34.77
2023-03-07T11:13:28.863Z,34.88
2023-03-07T11:16:25.731Z,34.33
2023-03-07T11:19:39.650Z,34.41
2023-03-07T11:22:24.736Z,34.96
2023-03-07T11:25:22.281Z,34.73
2023-03-07T11:28:29.894Z,34.56
2023-03-07T11:31:30.389Z,35.26
2023-03-07T11:34:36.863Z,35.62
2023-03-07T11:37:35.325Z,35.12
2023-03-07T11:40:30.639Z,34.19
2023-03-07T11:43:27.442Z,33.75
2023-03-07T11:46:30.494Z,34.32
2023-03-07T11:49:34.620Z,34.98
2023-03-07T11:52:49.381Z,35.67
2023-03-07T11:55:50.696Z,36.40
2023-03-07T11:59:09.789Z,36.68
2023-03-07T12:02:03.446Z,37.50
2023-03-07T12:05:10.519Z,37.03
2023-03-07T12:08:16.854Z,37.42
2023-03-07T12:11:24.860Z,37.43
2023-03-07T12:14:14.836Z,37.92
2023-03-07T12:17:18.970Z,38.10
2023-03-07T12:20:25.515Z,38.55
2023-03-07T12:23:24.305Z,38.41
2023-03-07T12:26:23.428Z,38.04
2023-03-07T12:30:09.059Z,38.12
2023-03-07T12:32:27.895Z,38.33
2023-03-07T12:35:28.793Z,38.49
2023-03-07T12:38:28.948Z,38.72
2023-03-07T12:41:30.418Z,38.97
2023-03-07T12:44:33.299Z,39.23
2023-03-07T12:47:17.995Z,39.48
2023-03-07T12:50:16.326Z,39.66
2023-03-07T12:53:25.796Z,39.80
2023-03-07T12:56:22.123Z,39.92
2023-03-07T12:59:17.583Z,39.86
2023-03-07T13:02:16.331Z,40.16
2023-03-07T13:05:17.682Z,40.39
2023-03-07T13:08:24.585Z,40.06
2023-03-07T13:10:59.535Z,39.62
2023-03-07T13:13:53.506Z,39.82
2023-03-07T13:16:45.020Z,40.03
2023-03-07T13:19:56.987Z,39.76
2023-03-07T13:23:13.340Z,39.76
2023-03-07T13:26:10.708Z,40.21
2023-03-07T13:29:02.723Z,40.12
2023-03-07T13:31:54.746Z,40.71
2023-03-07T13:34:52.675Z,40.84
2023-03-07T13:37:53.648Z,40.66
2023-03-07T13:40:58.409Z,40.78
2023-03-07T13:44:01.435Z,40.78
2023-03-07T13:47:01.570Z,41.26
2023-03-07T13:49:53.873Z,40.93
2023-03-07T13:52:47.247Z,41.40
2023-03-07T13:55:46.439Z,41.08
2023-03-07T13:58:44.450Z,41.30
2023-03-07T14:01:41.661Z,41.27
2023-03-07T14:04:33.117Z,41.42
2023-03-07T14:07:34.956Z,41.51
2023-03-07T14:10:26.424Z,41.45
2023-03-07T14:13:10.704Z,41.65
2023-03-07T14:16:23.070Z,41.66
2023-03-07T14:19:30.972Z,41.57
2023-03-07T14:22:36.265Z,42.01
2023-03-07T14:25:32.437Z,42.24
2023-03-07T14:28:21.690Z,42.31
2023-03-07T14:31:25.274Z,42.42
2023-03-07T14:34:27.152Z,42.59
2023-03-07T14:37:15.316Z,42.56
2023-03-07T14:40:30.803Z,42.59
2023-03-07T14:43:37.857Z,42.80
2023-03-07T14:46:21.902Z,42.95
2023-03-07T14:49:08.635Z,43.00
2023-03-07T14:51:45.212Z,43.04
2023-03-07T14:54:40.077Z,43.08
2023-03-07T14:57:35.247Z,43.04
2023-03-07T15:00:30.101Z,43.08
2023-03-07T15:03:24.102Z,43.04
2023-03-07T15:06:19.567Z,43.43
2023-03-07T15:08:56.827Z,43.53
2023-03-07T15:11:53.683Z,43.92
2023-03-07T15:14:50.710Z,43.89
2023-03-07T15:17:31.778Z,44.16
2023-03-07T15:20:27.192Z,44.22
2023-03-07T15:23:24.073Z,44.21
2023-03-07T15:26:21.212Z,44.47
2023-03-07T15:29:14.427Z,44.46
2023-03-07T15:32:08.448Z,44.51
2023-03-07T15:35:01.670Z,44.63
2023-03-07T15:37:59.940Z,44.98
2023-03-07T15:40:52.599Z,45.07
2023-03-07T15:43:44.531Z,45.11
2023-03-07T15:46:39.621Z,45.45
2023-03-07T15:49:31.820Z,45.55
2023-03-07T15:52:31.448Z,45.58
2023-03-07T15:55:21.007Z,45.70
2023-03-07T15:58:16.494Z,45.83
2023-03-07T16:01:18.773Z,46.13
2023-03-07T16:03:55.523Z,46.00
2023-03-07T16:06:43.122Z,46.34
2023-03-07T16:09:35.179Z,46.32
2023-03-07T16:12:28.400Z,46.52
2023-03-07T16:15:22.967Z,46.53
2023-03-07T16:17:56.637Z,46.50
2023-03-07T16:20:33.815Z,46.57
2023-03-07T16:23:28.690Z,46.80
2023-03-07T16:26:22.686Z,46.77
2023-03-07T16:29:17.733Z,46.71
2023-03-07T16:31:52.859Z,46.81
2023-03-07T16:34:45.205Z,46.97
2023-03-07T16:37:22.491Z,47.13
2023-03-07T16:40:16.059Z,47.20
2023-03-07T16:43:21.789Z,47.54
2023-03-07T16:46:17.772Z,47.57
2023-03-07T16:49:15.539Z,47.62
2023-03-07T16:52:10.016Z,47.95
2023-03-07T16:55:01.998Z,47.99
2023-03-07T16:57:57.384Z,48.27
2023-03-07T17:00:38.363Z,48.28
2023-03-07T17:03:30.809Z,48.43
2023-03-07T17:06:33.547Z,48.77
2023-03-07T17:09:30.357Z,48.81
2023-03-07T17:12:24.219Z,49.02
2023-03-07T17:15:15.338Z,48.97
2023-03-07T17:17:53.195Z,49.12
2023-03-07T17:20:29.111Z,49.36
2023-03-07T17:23:22.214Z,49.40
2023-03-07T17:26:20.213Z,49.63
2023-03-07T17:29:13.257Z,49.79
2023-03-07T17:31:53.968Z,50.01
2023-03-07T17:34:46.206Z,50.22
2023-03-07T17:37:21.034Z,50.41
2023-03-07T17:40:15.382Z,50.44
2023-03-07T17:43:07.500Z,50.62
2023-03-07T17:45:40.867Z,50.67
2023-03-07T17:48:33.100Z,50.95
2023-03-07T17:51:25.140Z,50.93
2023-03-07T17:54:02.275Z,51.04
2023-03-07T17:56:54.324Z,51.22
2023-03-07T17:59:35.312Z,51.33
2023-03-07T18:02:27.268Z,51.59
2023-03-07T18:05:09.370Z,51.65
2023-03-07T18:08:01.390Z,51.70
2023-03-07T18:10:53.564Z,51.75
2023-03-07T18:13:45.511Z,51.86
2023-03-07T18:16:37.622Z,51.90
2023-03-07T18:19:25.265Z,52.04
2023-03-07T18:22:06.748Z,52.26
2023-03-07T18:24:58.855Z,52.17
2023-03-07T18:27:39.582Z,52.38
2023-03-07T18:30:31.845Z,52.56
2023-03-07T18:33:23.849Z,52.66
2023-03-07T18:36:17.692Z,52.78
2023-03-07T18:38:59.908Z,52.92
2023-03-07T18:41:52.477Z,52.98
2023-03-07T18:44:44.718Z,53.11
2023-03-07T18:47:22.214Z,53.26
2023-03-07T18:50:15.126Z,53.35
2023-03-07T18:53:07.812Z,53.50
2023-03-07T18:56:02.905Z,53.59
2023-03-07T18:58:38.284Z,53.69
2023-03-07T19:01:31.966Z,53.80
2023-03-07T19:04:24.031Z,53.91
2023-03-07T19:07:01.655Z,54.02
2023-03-07T19:09:36.439Z,54.13
2023-03-07T19:12:28.724Z,54.30
2023-03-07T19:15:20.877Z,54.38
2023-03-07T19:18:12.868Z,54.42
2023-03-07T19:21:07.778Z,54.43
2023-03-07T19:24:04.471Z,54.49
2023-03-07T19:26:57.980Z,54.50
2023-03-07T19:29:49.989Z,54.56
2023-03-07T19:32:42.139Z,54.62
2023-03-07T19:35:34.341Z,54.59
2023-03-07T19:38:26.627Z,54.69
2023-03-07T19:41:19.992Z,54.70
2023-03-07T19:44:12.256Z,54.84
2023-03-07T19:47:04.283Z,54.81
2023-03-07T19:49:56.219Z,54.86
2023-03-07T19:52:48.148Z,54.89
2023-03-07T19:55:40.244Z,54.93
2023-03-07T19:58:32.212Z,55.17
2023-03-07T20:01:26.459Z,55.15
2023-03-07T20:04:16.958Z,55.24
2023-03-07T20:07:08.947Z,55.20
2023-03-07T20:10:01.273Z,55.33
2023-03-07T20:12:54.718Z,55.32
2023-03-07T20:15:53.228Z,55.52
2023-03-07T20:18:45.649Z,55.64
2023-03-07T20:21:38.992Z,55.68
2023-03-07T20:24:30.949Z,55.68
2023-03-07T20:27:25.385Z,55.79
2023-03-07T20:30:19.971Z,55.83
2023-03-07T20:33:11.966Z,55.92
2023-03-07T20:36:06.196Z,55.97
2023-03-07T20:38:43.191Z,56.05
2023-03-07T20:41:35.283Z,56.07
2023-03-07T20:44:27.403Z,56.09
2023-03-07T20:47:19.878Z,56.08
2023-03-07T20:50:15.537Z,56.25
2023-03-07T20:53:08.415Z,56.11
2023-03-07T20:56:05.042Z,56.22
2023-03-07T20:58:58.210Z,56.34
2023-03-07T21:01:50.397Z,56.39
2023-03-07T21:04:42.569Z,56.32
2023-03-07T21:07:34.610Z,56.39
2023-03-07T21:10:26.571Z,56.39
2023-03-07T21:12:58.387Z,56.42
2023-03-07T21:15:56.765Z,56.35
2023-03-07T21:18:49.055Z,56.41
2023-03-07T21:21:41.815Z,56.36
2023-03-07T21:24:33.842Z,56.36
2023-03-07T21:27:26.276Z,56.45
2023-03-07T21:30:12.589Z,56.43
2023-03-07T21:33:04.848Z,56.48
2023-03-07T21:35:57.019Z,56.44
2023-03-07T21:38:50.254Z,56.39
2023-03-07T21:41:42.518Z,56.42
2023-03-07T21:44:35.490Z,56.63
2023-03-07T21:47:07.572Z,56.51
2023-03-07T21:49:59.588Z,56.45
2023-03-07T21:52:51.795Z,56.45
2023-03-07T21:55:52.270Z,56.49
2023-03-07T21:58:34.942Z,56.50
2023-03-07T22:01:30.117Z,56.53
2023-03-07T22:04:22.195Z,56.55
2023-03-07T22:07:14.254Z,56.57
2023-03-07T22:10:08.050Z,56.64
2023-03-07T22:13:00.233Z,56.70
2023-03-07T22:15:42.441Z,56.80
2023-03-07T22:18:37.655Z,56.75
2023-03-07T22:21:29.769Z,56.74
2023-03-07T22:24:21.760Z,56.90
2023-03-07T22:27:13.930Z,56.86
2023-03-07T22:30:06.653Z,56.92
2023-03-07T22:32:41.475Z,56.88
2023-03-07T22:35:33.551Z,56.92
2023-03-07T22:38:25.515Z,57.00
2023-03-07T22:41:18.601Z,56.94
2023-03-07T22:44:11.252Z,56.93
2023-03-07T22:47:03.377Z,57.02
2023-03-07T22:49:55.294Z,57.05
2023-03-07T22:52:47.283Z,57.01
2023-03-07T22:55:43.223Z,57.12
2023-03-07T22:58:35.191Z,57.15
2023-03-07T23:01:17.639Z,57.25
2023-03-07T23:04:11.000Z,57.28
2023-03-07T23:07:03.108Z,57.31
2023-03-07T23:09:55.093Z,57.46
2023-03-07T23:12:49.912Z,57.47
2023-03-07T23:15:43.253Z,57.52
2023-03-07T23:18:35.543Z,57.80
2023-03-07T23:21:29.986Z,57.69
2023-03-07T23:24:22.027Z,57.85
2023-03-07T23:27:14.020Z,57.99
2023-03-07T23:30:07.460Z,58.09
2023-03-07T23:32:59.456Z,58.27
2023-03-07T23:35:51.538Z,58.23
2023-03-07T23:38:26.426Z,58.40
2023-03-07T23:41:02.102Z,58.67
2023-03-07T23:43:55.293Z,58.77
2023-03-07T23:46:47.269Z,58.94
2023-03-07T23:49:26.066Z,58.95
2023-03-07T23:52:18.273Z,59.08
2023-03-07T23:55:11.641Z,59.25
2023-03-07T23:58:03.746Z,59.27
